createdAt,value
2019-03-10T00:01:50.661Z,99732.59
2019-03-10T00:04:22.480Z,99758.00
2019-03-10T00:06:54.062Z,99776.32
2019-03-10T00:09:25.613Z,99743.53
2019-03-10T00:11:57.293Z,99783.09
2019-03-10T00:14:28.879Z,99775.55
2019-03-10T00:17:00.446Z,99791.92
2019-03-10T00:19:33.034Z,99796.45
2019-03-10T00:22:04.870Z,99809.06
2019-03-10T00:24:36.503Z,99817.32
2019-03-10T00:27:08.134Z,99821.94
2019-03-10T00:29:39.753Z,99824.57
2019-03-10T00:32:11.282Z,99838.14
2019-03-10T00:34:42.845Z,99848.06
2019-03-10T00:37:14.477Z,99857.02
2019-03-10T00:40:08.802Z,99857.35
2019-03-10T00:43:10.636Z,99872.66
2019-03-10T00:46:35.209Z,99875.33
2019-03-10T00:49:37.213Z,99878.93
2019-03-10T00:52:25.045Z,99890.84
2019-03-10T00:54:56.755Z,99896.39
2019-03-10T00:57:28.344Z,99885.17
2019-03-10T01:00:00.837Z,99898.46
2019-03-10T01:02:34.396Z,99912.76
2019-03-10T01:05:07.475Z,99908.34
2019-03-10T01:07:39.084Z,99926.20
2019-03-10T01:10:10.653Z,99927.91
2019-03-10T01:12:42.788Z,99927.91
2019-03-10T01:15:15.957Z,99924.67
2019-03-10T01:17:47.496Z,99933.11
2019-03-10T01:20:19.106Z,99936.81
2019-03-10T01:22:50.839Z,99936.81
2019-03-10T01:25:22.577Z,99931.92
2019-03-10T01:27:54.293Z,99939.23
2019-03-10T01:30:25.873Z,99933.69
2019-03-10T01:33:20.363Z,99943.09
2019-03-10T01:35:51.874Z,99944.27
2019-03-10T01:38:23.397Z,99937.88
2019-03-10T01:40:54.904Z,99948.66
2019-03-10T01:43:27.117Z,99950.88
2019-03-10T01:45:58.713Z,99937.22
2019-03-10T01:48:30.334Z,99947.51
2019-03-10T01:51:02.269Z,99952.04
2019-03-10T01:53:33.900Z,99952.08
2019-03-10T01:56:05.411Z,99945.77
2019-03-10T01:58:36.922Z,99943.20
2019-03-10T02:01:09.047Z,99941.49
2019-03-10T02:03:40.713Z,99942.73
2019-03-10T02:06:12.289Z,99946.70
2019-03-10T02:08:43.937Z,99950.90
2019-03-10T02:11:15.551Z,99945.52
2019-03-10T02:13:47.063Z,99953.88
2019-03-10T02:16:18.655Z,99948.07
2019-03-10T02:18:50.296Z,99958.62
2019-03-10T02:21:22.051Z,99951.05
2019-03-10T02:23:53.925Z,99956.47
2019-03-10T02:26:26.157Z,99963.04
2019-03-10T02:28:58.055Z,99964.67
2019-03-10T02:31:29.644Z,99962.81
2019-03-10T02:34:01.221Z,99964.56
2019-03-10T02:36:32.762Z,99961.81
2019-03-10T02:39:05.264Z,99960.36
2019-03-10T02:41:37.479Z,99965.20
2019-03-10T02:44:08.998Z,99957.80
2019-03-10T02:46:40.506Z,99955.20
2019-03-10T02:49:12.048Z,99956.76
2019-03-10T02:51:43.680Z,99942.50
2019-03-10T02:54:15.303Z,99939.30
2019-03-10T02:56:46.968Z,99942.19
2019-03-10T02:59:18.553Z,99933.17
2019-03-10T03:01:50.774Z,99925.08
2019-03-10T03:04:22.285Z,99922.08
2019-03-10T03:06:53.888Z,99917.54
2019-03-10T03:09:25.472Z,99913.67
2019-03-10T03:11:57.141Z,99909.77
2019-03-10T03:14:28.874Z,99912.41
2019-03-10T03:17:00.546Z,99917.59
2019-03-10T03:19:32.257Z,99931.87
2019-03-10T03:22:04.001Z,99942.66
2019-03-10T03:24:35.657Z,99944.89
2019-03-10T03:27:07.163Z,99941.88
2019-03-10T03:29:39.543Z,99936.05
2019-03-10T03:32:11.175Z,99932.73
2019-03-10T03:34:42.741Z,99932.05
2019-03-10T03:37:14.843Z,99922.89
2019-03-10T03:39:46.630Z,99943.11
2019-03-10T03:42:18.253Z,99953.10
2019-03-10T03:44:50.266Z,99941.94
2019-03-10T03:47:21.797Z,99969.30
2019-03-10T03:49:54.289Z,99966.18
2019-03-10T03:52:25.946Z,99957.89
2019-03-10T03:54:57.794Z,99962.92
2019-03-10T03:57:29.404Z,99961.48
2019-03-10T04:00:00.958Z,99946.13
2019-03-10T04:02:37.563Z,99947.31
2019-03-10T04:05:10.892Z,99950.46
2019-03-10T04:07:42.491Z,99943.16
2019-03-10T04:10:14.018Z,99939.33
2019-03-10T04:12:46.133Z,99947.02
2019-03-10T04:15:17.830Z,99950.27
2019-03-10T04:17:49.751Z,99943.59
2019-03-10T04:20:21.337Z,99944.09
2019-03-10T04:22:52.909Z,99930.13
2019-03-10T04:25:24.972Z,99932.44
2019-03-10T04:27:57.759Z,99932.03
2019-03-10T04:30:29.352Z,99928.03
2019-03-10T04:33:00.921Z,99928.03
2019-03-10T04:35:32.770Z,99928.12
2019-03-10T04:38:04.575Z,99929.88
2019-03-10T04:40:36.743Z,99924.91
2019-03-10T04:43:08.291Z,99922.82
2019-03-10T04:45:39.820Z,99923.36
2019-03-10T04:48:11.367Z,99918.53
2019-03-10T04:50:42.988Z,99920.25
2019-03-10T04:53:14.839Z,99925.97
2019-03-10T04:55:51.182Z,99922.56
2019-03-10T04:58:24.590Z,99920.44
2019-03-10T05:00:58.093Z,99922.53
2019-03-10T05:03:30.350Z,99921.41
2019-03-10T05:06:01.973Z,99921.41
2019-03-10T05:08:33.505Z,99930.34
2019-03-10T05:11:05.039Z,99922.84
2019-03-10T05:13:37.627Z,99938.13
2019-03-10T05:16:09.187Z,99932.54
2019-03-10T05:18:40.696Z,99944.04
2019-03-10T05:21:12.190Z,99941.47
2019-03-10T05:23:43.852Z,99937.69
2019-03-10T05:26:15.371Z,99934.13
2019-03-10T05:28:47.127Z,99938.13
2019-03-10T05:31:19.808Z,99940.70
2019-03-10T05:33:51.425Z,99952.39
2019-03-10T05:36:23.118Z,99948.61
2019-03-10T05:38:54.798Z,99953.14
2019-03-10T05:41:26.354Z,99943.81
2019-03-10T05:43:58.854Z,99954.48
2019-03-10T05:46:31.548Z,99948.73
2019-03-10T05:49:03.062Z,99943.97
2019-03-10T05:51:34.639Z,99946.73
2019-03-10T05:54:06.438Z,99947.05
2019-03-10T05:56:38.028Z,99939.31
2019-03-10T05:59:09.523Z,99943.88
2019-03-10T06:01:41.075Z,99952.71
2019-03-10T06:04:12.938Z,99946.36
2019-03-10T06:06:44.446Z,99947.68
2019-03-10T06:09:16.826Z,99935.61
2019-03-10T06:11:48.739Z,99934.13
2019-03-10T06:14:20.558Z,99939.29
2019-03-10T06:16:52.210Z,99946.99
2019-03-10T06:19:23.749Z,99943.09
2019-03-10T06:21:55.331Z,99941.23
2019-03-10T06:24:26.968Z,99957.28
2019-03-10T06:26:58.561Z,99949.23
2019-03-10T06:29:30.149Z,99945.75
2019-03-10T06:32:01.785Z,99954.41
2019-03-10T06:34:33.447Z,99960.77
2019-03-10T06:37:05.296Z,99962.36
2019-03-10T06:39:36.948Z,99962.03
2019-03-10T06:42:08.532Z,99958.34
2019-03-10T06:44:40.427Z,99961.42
2019-03-10T06:47:12.074Z,99966.91
2019-03-10T06:49:43.576Z,99966.11
2019-03-10T06:52:15.264Z,99959.53
2019-03-10T06:54:47.992Z,99957.70
2019-03-10T06:57:19.659Z,99950.36
2019-03-10T06:59:51.355Z,99947.44
2019-03-10T07:02:23.085Z,99948.37
2019-03-10T07:04:54.795Z,99949.76
2019-03-10T07:07:26.383Z,99952.03
2019-03-10T07:09:57.892Z,99951.70
2019-03-10T07:12:29.656Z,99951.45
2019-03-10T07:15:01.157Z,99944.03
2019-03-10T07:17:32.949Z,99947.00
2019-03-10T07:20:14.975Z,99949.09
2019-03-10T07:22:46.884Z,99945.00
2019-03-10T07:25:21.777Z,99930.23
2019-03-10T07:28:05.173Z,99934.61
2019-03-10T07:30:44.590Z,99945.89
2019-03-10T07:33:26.902Z,99920.10
2019-03-10T07:36:16.965Z,99927.50
2019-03-10T07:39:06.104Z,99932.00
2019-03-10T07:41:47.506Z,99916.50
2019-03-10T07:44:22.322Z,99925.05
2019-03-10T07:46:58.499Z,99917.99
2019-03-10T07:49:34.761Z,99911.48
2019-03-10T07:52:07.157Z,99916.03
2019-03-10T07:54:43.058Z,99917.25
2019-03-10T07:57:27.742Z,99908.50
2019-03-10T08:00:01.048Z,99900.59
2019-03-10T08:02:51.023Z,99900.61
2019-03-10T08:05:28.595Z,99898.11
2019-03-10T08:08:07.929Z,99892.55
2019-03-10T08:10:50.015Z,99891.44
2019-03-10T08:13:29.148Z,99884.23
2019-03-10T08:16:02.368Z,99889.30
2019-03-10T08:18:41.797Z,99883.04
2019-03-10T08:21:15.130Z,99883.44
2019-03-10T08:23:46.456Z,99884.33
2019-03-10T08:26:27.966Z,99881.50
2019-03-10T08:29:11.457Z,99891.90
2019-03-10T08:31:47.362Z,99885.38
2019-03-10T08:34:38.721Z,99880.22
2019-03-10T08:37:10.079Z,99878.46
2019-03-10T08:39:50.801Z,99872.30
2019-03-10T08:42:24.050Z,99867.16
2019-03-10T08:45:06.034Z,99866.17
2019-03-10T08:47:58.182Z,99856.08
2019-03-10T08:50:37.466Z,99853.64
2019-03-10T08:53:24.290Z,99850.77
2019-03-10T08:56:13.689Z,99845.44
2019-03-10T08:59:05.043Z,99845.14
2019-03-10T09:01:54.455Z,99833.52
2019-03-10T09:04:31.751Z,99834.00
2019-03-10T09:07:17.290Z,99836.44
2019-03-10T09:09:53.384Z,99834.84
2019-03-10T09:12:29.571Z,99824.14
2019-03-10T09:15:05.876Z,99826.63
2019-03-10T09:17:48.036Z,99822.00
2019-03-10T09:20:22.330Z,99807.70
2019-03-10T09:22:55.638Z,99808.05
2019-03-10T09:25:36.505Z,99805.89
2019-03-10T09:28:09.679Z,99805.33
2019-03-10T09:30:59.053Z,99799.79
2019-03-10T09:33:35.607Z,99790.41
2019-03-10T09:36:12.007Z,99789.17
2019-03-10T09:39:01.835Z,99782.21
2019-03-10T09:41:42.735Z,99775.72
2019-03-10T09:44:25.840Z,99766.62
2019-03-10T09:47:08.229Z,99763.94
2019-03-10T09:49:53.473Z,99770.27
2019-03-10T09:52:26.815Z,99756.45
2019-03-10T09:55:00.991Z,99743.98
2019-03-10T09:57:46.856Z,99750.30
2019-03-10T10:00:19.999Z,99754.02
2019-03-10T10:02:58.850Z,99746.68
2019-03-10T10:05:36.480Z,99751.24
2019-03-10T10:08:22.319Z,99756.00
2019-03-10T10:11:05.771Z,99754.60
2019-03-10T10:13:42.071Z,99745.03
2019-03-10T10:16:30.595Z,99743.98
2019-03-10T10:19:10.231Z,99746.38
2019-03-10T10:21:59.837Z,99750.84
2019-03-10T10:24:45.171Z,99747.17
2019-03-10T10:27:20.108Z,99758.09
2019-03-10T10:30:03.603Z,99751.05
2019-03-10T10:32:39.896Z,99749.30
2019-03-10T10:35:29.240Z,99744.29
2019-03-10T10:38:18.961Z,99746.61
2019-03-10T10:41:02.738Z,99745.70
2019-03-10T10:43:43.376Z,99744.13
2019-03-10T10:46:32.958Z,99748.14
2019-03-10T10:49:06.126Z,99740.48
2019-03-10T10:51:55.999Z,99740.05
2019-03-10T10:54:27.389Z,99738.80
2019-03-10T10:57:03.507Z,99738.09
2019-03-10T10:59:52.194Z,99731.41
2019-03-10T11:02:41.743Z,99728.82
2019-03-10T11:05:21.300Z,99728.61
2019-03-10T11:07:59.800Z,99722.37
2019-03-10T11:10:39.125Z,99714.57
2019-03-10T11:13:22.262Z,99709.00
2019-03-10T11:16:11.297Z,99697.88
2019-03-10T11:19:00.215Z,99699.55
2019-03-10T11:21:33.400Z,99690.45
2019-03-10T11:24:10.483Z,99689.48
2019-03-10T11:26:48.604Z,99681.08
2019-03-10T11:29:29.848Z,99688.19
2019-03-10T11:32:19.055Z,99685.16
2019-03-10T11:34:57.254Z,99672.40
2019-03-10T11:37:30.558Z,99677.17
2019-03-10T11:40:11.704Z,99674.97
2019-03-10T11:43:13.226Z,99664.59
2019-03-10T11:46:08.539Z,99665.08
2019-03-10T11:48:56.252Z,99647.25
2019-03-10T11:51:34.067Z,99646.20
2019-03-10T11:54:08.648Z,99645.83
2019-03-10T11:57:02.618Z,99637.09
2019-03-10T11:59:46.148Z,99623.88
2019-03-10T12:02:20.965Z,99627.00
2019-03-10T12:05:13.566Z,99635.48
2019-03-10T12:10:46.283Z,99620.07
2019-03-10T12:13:39.139Z,99613.55
2019-03-10T12:16:33.208Z,99612.41
2019-03-10T12:19:07.869Z,99599.90
2019-03-10T12:21:43.993Z,99599.96
2019-03-10T12:24:21.603Z,99588.34
2019-03-10T12:26:54.566Z,99587.77
2019-03-10T12:29:29.247Z,99588.85
2019-03-10T12:32:02.050Z,99572.42
2019-03-10T12:34:34.990Z,99568.22
2019-03-10T12:37:09.178Z,99562.62
2019-03-10T12:39:41.289Z,99546.88
2019-03-10T12:42:13.893Z,99536.77
2019-03-10T12:44:45.566Z,99520.02
2019-03-10T12:47:17.203Z,99520.77
2019-03-10T12:49:48.763Z,99510.45
2019-03-10T12:52:20.346Z,99501.58
2019-03-10T12:54:52.496Z,99496.87
2019-03-10T12:57:24.086Z,99495.56
2019-03-10T12:59:55.742Z,99495.64
2019-03-10T13:02:28.897Z,99493.61
2019-03-10T13:05:01.582Z,99491.98
2019-03-10T13:07:34.470Z,99482.16
2019-03-10T13:10:06.969Z,99475.47
2019-03-10T13:12:38.532Z,99470.48
2019-03-10T13:15:12.536Z,99465.84
2019-03-10T13:17:44.165Z,99464.43
2019-03-10T13:20:15.755Z,99466.54
2019-03-10T13:22:47.281Z,99459.42
2019-03-10T13:25:18.958Z,99459.48
2019-03-10T13:27:50.479Z,99452.61
2019-03-10T13:30:22.006Z,99447.77
2019-03-10T13:32:53.686Z,99446.77
2019-03-10T13:35:25.323Z,99450.95
2019-03-10T13:37:56.934Z,99445.22
2019-03-10T13:40:28.559Z,99453.16
2019-03-10T13:43:00.160Z,99452.66
2019-03-10T13:45:31.687Z,99457.98
2019-03-10T13:48:03.339Z,99458.95
2019-03-10T13:50:35.380Z,99457.70
2019-03-10T13:53:06.854Z,99453.20
2019-03-10T13:55:38.421Z,99451.69
2019-03-10T13:58:10.044Z,99440.93
2019-03-10T14:00:41.759Z,99435.09
2019-03-10T14:03:13.360Z,99439.02
2019-03-10T14:05:44.901Z,99431.52
2019-03-10T14:08:16.478Z,99427.03
2019-03-10T14:10:47.996Z,99415.57
2019-03-10T14:13:20.951Z,99412.53
2019-03-10T14:15:53.547Z,99408.57
2019-03-10T14:18:25.165Z,99405.00
2019-03-10T14:20:56.798Z,99399.52
2019-03-10T14:23:28.393Z,99392.09
2019-03-10T14:25:59.992Z,99390.03
2019-03-10T14:28:31.500Z,99382.83
2019-03-10T14:31:03.080Z,99381.02
2019-03-10T14:33:34.566Z,99374.55
2019-03-10T14:36:06.447Z,99371.41
2019-03-10T14:38:37.943Z,99369.67
2019-03-10T14:41:09.501Z,99366.59
2019-03-10T14:43:41.027Z,99369.20
2019-03-10T14:46:12.515Z,99358.50
2019-03-10T14:48:45.183Z,99346.42
2019-03-10T14:51:16.916Z,99350.48
2019-03-10T14:53:49.605Z,99346.63
2019-03-10T14:56:21.240Z,99341.89
2019-03-10T14:58:52.785Z,99333.76
2019-03-10T15:01:24.349Z,99324.78
2019-03-10T15:03:56.009Z,99327.00
2019-03-10T15:06:27.607Z,99326.31
2019-03-10T15:08:59.163Z,99319.91
2019-03-10T15:11:30.707Z,99311.88
2019-03-10T15:14:02.219Z,99306.58
2019-03-10T15:16:33.864Z,99306.83
2019-03-10T15:19:05.372Z,99298.77
2019-03-10T15:21:36.976Z,99292.87
2019-03-10T15:24:08.610Z,99291.75
2019-03-10T15:26:45.601Z,99287.27
2019-03-10T15:29:13.445Z,99278.66
2019-03-10T15:31:45.028Z,99281.34
2019-03-10T15:34:16.543Z,99278.66
2019-03-10T15:36:48.125Z,99277.41
2019-03-10T15:39:19.714Z,99273.46
2019-03-10T15:41:51.274Z,99271.13
2019-03-10T15:44:22.838Z,99260.44
2019-03-10T15:46:54.379Z,99249.71
2019-03-10T15:49:25.999Z,99233.06
2019-03-10T15:51:57.801Z,99229.88
2019-03-10T15:54:29.563Z,99227.42
2019-03-10T15:57:01.160Z,99216.97
2019-03-10T15:59:33.752Z,99213.30
2019-03-10T16:02:05.410Z,99207.94
2019-03-10T16:04:37.198Z,99211.22
2019-03-10T16:07:08.675Z,99208.47
2019-03-10T16:09:40.184Z,99201.30
2019-03-10T16:12:11.728Z,99199.64
2019-03-10T16:14:43.349Z,99187.03
2019-03-10T16:17:14.909Z,99180.19
2019-03-10T16:19:46.499Z,99177.97
2019-03-10T16:22:18.006Z,99180.16
2019-03-10T16:24:49.971Z,99172.97
2019-03-10T16:27:21.460Z,99172.19
2019-03-10T16:29:53.033Z,99172.34
2019-03-10T16:32:24.761Z,99172.41
2019-03-10T16:34:56.251Z,99173.81
2019-03-10T16:37:27.853Z,99169.50
2019-03-10T16:39:59.448Z,99165.22
2019-03-10T16:42:31.347Z,99170.84
2019-03-10T16:45:03.048Z,99171.53
2019-03-10T16:47:34.864Z,99166.50
2019-03-10T16:50:10.980Z,99164.54
2019-03-10T16:52:42.530Z,99162.42
2019-03-10T16:55:14.166Z,99152.55
2019-03-10T16:57:45.764Z,99142.40
2019-03-10T17:00:19.685Z,99140.44
2019-03-10T17:02:52.224Z,99135.31
2019-03-10T17:05:24.315Z,99134.70
2019-03-10T17:07:55.819Z,99130.41
2019-03-10T17:10:27.982Z,99124.92
2019-03-10T17:12:59.659Z,99126.16
2019-03-10T17:15:31.244Z,99115.05
2019-03-10T17:18:02.784Z,99101.34
2019-03-10T17:20:34.399Z,99088.84
2019-03-10T17:23:06.136Z,99095.03
2019-03-10T17:25:37.729Z,99092.03
2019-03-10T17:28:09.253Z,99092.95
2019-03-10T17:30:41.928Z,99105.81
2019-03-10T17:33:13.430Z,99098.70
2019-03-10T17:35:46.092Z,99084.62
2019-03-10T17:38:18.302Z,99071.23
2019-03-10T17:40:49.897Z,99064.34
2019-03-10T17:43:21.659Z,99064.19
2019-03-10T17:45:53.231Z,99061.69
2019-03-10T17:48:24.921Z,99068.75
2019-03-10T17:50:57.624Z,99069.16
2019-03-10T17:53:29.170Z,99068.53
2019-03-10T17:56:00.832Z,99062.79
2019-03-10T17:58:34.179Z,99061.78
2019-03-10T18:01:06.052Z,99064.03
2019-03-10T18:03:37.663Z,99058.80
2019-03-10T18:06:09.241Z,99059.47
2019-03-10T18:08:40.909Z,99052.66
2019-03-10T18:11:17.183Z,99050.73
2019-03-10T18:13:48.883Z,99039.72
2019-03-10T18:16:20.532Z,99046.95
2019-03-10T18:18:52.230Z,99043.88
2019-03-10T18:21:23.765Z,99040.38
2019-03-10T18:23:55.283Z,99042.89
2019-03-10T18:26:26.808Z,99033.00
2019-03-10T18:28:58.382Z,99025.70
2019-03-10T18:31:29.880Z,99018.41
2019-03-10T18:34:01.583Z,99015.95
2019-03-10T18:36:33.197Z,99005.88
2019-03-10T18:39:06.851Z,99004.86
2019-03-10T18:41:39.143Z,99008.75
2019-03-10T18:44:10.823Z,98995.92
2019-03-10T18:46:42.426Z,98998.34
2019-03-10T18:49:15.110Z,98989.08
2019-03-10T18:51:46.624Z,98982.16
2019-03-10T18:54:18.378Z,98980.48
2019-03-10T18:56:50.369Z,98970.56
2019-03-10T18:59:22.098Z,98964.42
2019-03-10T19:01:53.734Z,98950.17
2019-03-10T19:04:25.302Z,98951.68
2019-03-10T19:06:57.050Z,98953.09
2019-03-10T19:09:28.771Z,98957.59
2019-03-10T19:12:00.297Z,98959.70
2019-03-10T19:14:31.955Z,98971.36
2019-03-10T19:17:03.719Z,98978.56
2019-03-10T19:19:35.359Z,98971.27
2019-03-10T19:22:07.069Z,98970.60
2019-03-10T19:24:38.664Z,98974.49
2019-03-10T19:27:10.248Z,98963.33
2019-03-10T19:29:42.054Z,98963.50
2019-03-10T19:32:13.650Z,98954.47
2019-03-10T19:34:45.381Z,98954.34
2019-03-10T19:37:17.325Z,98949.55
2019-03-10T19:39:48.980Z,98946.09
2019-03-10T19:42:20.982Z,98950.10
2019-03-10T19:44:52.612Z,98947.12
2019-03-10T19:47:25.167Z,98942.72
2019-03-10T19:49:56.838Z,98941.30
2019-03-10T19:52:28.465Z,98930.28
2019-03-10T19:55:00.312Z,98931.59
2019-03-10T19:57:32.459Z,98925.00
2019-03-10T20:00:15.035Z,98918.72
2019-03-10T20:02:47.691Z,98926.73
2019-03-10T20:05:19.239Z,98915.38
2019-03-10T20:07:50.826Z,98921.66
2019-03-10T20:10:25.677Z,98923.78
2019-03-10T20:12:57.319Z,98922.48
2019-03-10T20:15:28.853Z,98926.09
2019-03-10T20:18:00.502Z,98931.96
2019-03-10T20:20:36.366Z,98918.36
2019-03-10T20:23:07.972Z,98929.00
2019-03-10T20:25:39.627Z,98924.08
2019-03-10T20:28:11.222Z,98920.92
2019-03-10T20:30:42.928Z,98922.11
2019-03-10T20:33:14.666Z,98919.91
2019-03-10T20:35:46.292Z,98909.09
2019-03-10T20:38:17.920Z,98909.59
2019-03-10T20:40:49.448Z,98936.70
2019-03-10T20:43:20.968Z,98941.02
2019-03-10T20:45:52.857Z,98941.86
2019-03-10T20:48:24.872Z,98948.50
2019-03-10T20:50:56.536Z,98951.84
2019-03-10T20:53:30.613Z,98952.75
2019-03-10T20:56:01.707Z,98961.83
2019-03-10T20:58:34.946Z,98962.54
2019-03-10T21:01:06.977Z,98966.13
2019-03-10T21:03:38.813Z,98977.72
2019-03-10T21:06:10.535Z,98976.30
2019-03-10T21:08:42.110Z,98992.45
2019-03-10T21:11:13.666Z,98989.02
2019-03-10T21:13:45.251Z,98995.80
2019-03-10T21:16:16.840Z,99004.55
2019-03-10T21:18:48.406Z,98995.41
2019-03-10T21:21:20.130Z,98997.88
2019-03-10T21:23:51.705Z,99002.44
2019-03-10T21:26:23.407Z,99000.91
2019-03-10T21:28:55.053Z,99016.19
2019-03-10T21:31:26.578Z,99016.59
2019-03-10T21:33:58.340Z,99019.77
2019-03-10T21:36:30.034Z,99021.94
2019-03-10T21:39:01.626Z,99026.65
2019-03-10T21:41:34.812Z,99035.70
2019-03-10T21:44:06.400Z,99041.07
2019-03-10T21:46:38.080Z,99047.45
2019-03-10T21:49:09.747Z,99053.95
2019-03-10T21:51:41.259Z,99058.97
2019-03-10T21:54:12.906Z,99069.59
2019-03-10T21:56:44.501Z,99074.92
2019-03-10T21:59:16.096Z,99071.59
2019-03-10T22:01:47.726Z,99078.58
2019-03-10T22:04:19.281Z,99088.77
2019-03-10T22:06:50.865Z,99087.58
2019-03-10T22:09:23.325Z,99105.38
2019-03-10T22:11:57.643Z,99111.50
2019-03-10T22:14:33.507Z,99113.53
2019-03-10T22:17:13.292Z,99117.07
2019-03-10T22:19:47.431Z,99125.96
2019-03-10T22:22:20.958Z,99134.34
2019-03-10T22:24:53.948Z,99138.77
2019-03-10T22:27:28.588Z,99153.31
2019-03-10T22:30:02.608Z,99171.07
2019-03-10T22:32:34.718Z,99186.02
2019-03-10T22:35:07.204Z,99201.77
2019-03-10T22:37:38.808Z,99208.00
2019-03-10T22:40:17.674Z,99216.58
2019-03-10T22:42:49.244Z,99227.08
2019-03-10T22:45:21.689Z,99237.33
2019-03-10T22:47:53.306Z,99247.05
2019-03-10T22:50:24.967Z,99258.12
2019-03-10T22:52:56.543Z,99276.66
2019-03-10T22:55:28.302Z,99286.89
2019-03-10T22:57:59.896Z,99298.92
2019-03-10T23:00:49.630Z,99312.05
2019-03-10T23:03:21.555Z,99318.86
2019-03-10T23:05:53.108Z,99341.45
2019-03-10T23:08:24.915Z,99347.88
2019-03-10T23:10:56.477Z,99364.05
2019-03-10T23:13:28.038Z,99378.74
2019-03-10T23:15:59.748Z,99392.73
2019-03-10T23:18:31.333Z,99398.96
2019-03-10T23:21:03.428Z,99404.59
2019-03-10T23:23:35.119Z,99411.97
2019-03-10T23:26:06.761Z,99429.70
2019-03-10T23:28:38.530Z,99431.02
2019-03-10T23:31:10.185Z,99441.88
2019-03-10T23:33:41.848Z,99448.81
2019-03-10T23:36:13.944Z,99469.93
2019-03-10T23:38:45.575Z,99470.27
2019-03-10T23:41:17.328Z,99479.59
2019-03-10T23:43:48.917Z,99482.19
2019-03-10T23:46:20.487Z,99499.06
2019-03-10T23:48:52.309Z,99493.14
2019-03-10T23:51:24.016Z,99500.89
2019-03-10T23:53:56.008Z,99504.95
2019-03-10T23:56:27.538Z,99515.50
2019-03-10T23:58:59.019Z,99523.13
